Terminal Aerodrome Forecast
Issued by NWS

Home | Current Version | Previous Version | Text Only | Print | Product List | Glossary On
Versions: 1 2 3 4 5 6 7 8 9 10 11 12 13 14 15
356
FTUS43 KAPX 180536
TAFTVC
TAF
KTVC 180536Z 1806/1906 11004KT 3SM -SHRA BR OVC015
     FM180900 VRB03KT 4SM -SHRA BR OVC008
     FM181200 36004KT P6SM VCSH OVC008
     FM181400 36006KT P6SM VCSH OVC015
     FM181800 35010G21KT P6SM -SHRA OVC020
     FM182000 35011G23KT P6SM VCSH OVC020
     FM190000 34014G27KT 6SM -DZ BR OVC018=

USA.gov is the U.S. government's official web portal to all federal, state and local government web resources and services.